Time;durP1;ratioP1;P1;durP2;ratioP2;P2;SDS_P1;SDS_P2;PMS_P1;PMS_P2;Temp;Humidity;BMP_temperature;BMP_pressure;BME280_temperature;BME280_humidity;BME280_pressure;Samples;Min_cycle;Max_cycle;Signal;HPM_P1;HPM_P2
2023/03/02 00:00:31;;;;;;;16.00;10.20;;;2.50;99.90;;;;;;10328025;28;21043;-76
2023/03/02 00:05:34;;;;;;;19.40;11.13;;;2.40;99.90;;;;;;10343346;28;20311;-73
2023/03/02 00:10:35;;;;;;;16.57;10.67;;;2.40;99.90;;;;;;10335211;28;20260;-72
2023/03/02 00:15:36;;;;;;;20.13;11.10;;;2.40;99.90;;;;;;10326211;28;20187;-73
2023/03/02 00:20:37;;;;;;;17.43;11.67;;;2.30;99.90;;;;;;10333496;28;20232;-73
2023/03/02 00:25:39;;;;;;;16.40;11.13;;;2.30;99.90;;;;;;10384017;28;20227;-73
2023/03/02 00:30:39;;;;;;;16.67;10.70;;;2.30;99.90;;;;;;10365179;28;20238;-78
2023/03/02 00:35:40;;;;;;;17.13;11.37;;;2.20;99.90;;;;;;10340734;28;20217;-73
2023/03/02 00:40:45;;;;;;;17.07;11.53;;;2.20;99.90;;;;;;10335456;28;20237;-74
2023/03/02 00:45:46;;;;;;;19.90;11.77;;;2.20;99.90;;;;;;10333787;28;20241;-71
2023/03/02 00:50:47;;;;;;;21.20;11.17;;;2.10;99.90;;;;;;10335273;28;20909;-75
2023/03/02 00:55:54;;;;;;;17.40;10.67;;;2.10;99.90;;;;;;10333300;28;20215;-75
2023/03/02 01:00:55;;;;;;;16.17;11.30;;;2.10;99.90;;;;;;10346331;28;20218;-73
2023/03/02 01:05:56;;;;;;;17.30;11.20;;;2.00;99.90;;;;;;10332589;28;20689;-74
2023/03/02 01:11:00;;;;;;;16.73;10.73;;;2.00;99.90;;;;;;10340258;28;20380;-73
2023/03/02 01:16:01;;;;;;;17.33;10.23;;;2.00;99.90;;;;;;10347914;28;20222;-73
2023/03/02 01:21:09;;;;;;;15.80;10.30;;;1.90;99.90;;;;;;10336141;28;20304;-76
2023/03/02 01:26:10;;;;;;;17.70;10.50;;;1.90;99.90;;;;;;10332972;28;20583;-74
2023/03/02 01:31:11;;;;;;;16.80;11.03;;;1.80;99.90;;;;;;10345448;28;20224;-74
2023/03/02 01:36:14;;;;;;;17.17;10.80;;;1.80;99.90;;;;;;10333889;28;20217;-77
2023/03/02 01:41:15;;;;;;;18.87;11.20;;;1.80;99.90;;;;;;10337461;28;20266;-77
2023/03/02 01:46:20;;;;;;;17.83;11.27;;;1.70;99.90;;;;;;10336738;28;20278;-77
2023/03/02 01:51:26;;;;;;;16.47;10.93;;;1.70;99.90;;;;;;10335144;28;20245;-75
2023/03/02 01:56:33;;;;;;;17.33;11.17;;;1.70;99.90;;;;;;10322927;28;20230;-73
2023/03/02 02:01:36;;;;;;;17.13;10.63;;;1.60;99.90;;;;;;10335377;28;20229;-74
2023/03/02 02:06:41;;;;;;;16.93;11.57;;;1.60;99.90;;;;;;10334140;28;20233;-71
2023/03/02 02:11:43;;;;;;;15.87;10.53;;;1.60;99.90;;;;;;10329033;28;20236;-80
2023/03/02 02:16:43;;;;;;;19.80;11.63;;;1.50;99.90;;;;;;10336099;28;20218;-75
2023/03/02 02:21:44;;;;;;;17.67;10.97;;;1.40;99.90;;;;;;10333575;28;20218;-74
2023/03/02 02:26:51;;;;;;;17.33;10.77;;;1.40;99.90;;;;;;10329742;28;20222;-73
2023/03/02 02:32:15;;;;;;;15.47;10.63;;;1.40;99.90;;;;;;10336181;28;20307;-74
2023/03/02 02:37:29;;;;;;;16.93;11.27;;;1.40;99.90;;;;;;10349538;28;20638;-77
2023/03/02 02:42:34;;;;;;;16.93;10.80;;;1.30;99.90;;;;;;10350793;28;20223;-75
2023/03/02 02:47:35;;;;;;;20.00;11.60;;;1.30;99.90;;;;;;10368927;28;20271;-77
2023/03/02 02:52:36;;;;;;;17.80;11.17;;;1.30;99.90;;;;;;10351630;28;20311;-77
2023/03/02 02:57:38;;;;;;;22.87;11.13;;;1.20;99.90;;;;;;10331856;28;20237;-76
2023/03/02 03:02:44;;;;;;;18.97;11.03;;;1.20;99.90;;;;;;10331157;28;20256;-77
2023/03/02 03:07:44;;;;;;;17.07;11.13;;;1.20;99.90;;;;;;10332145;28;20233;-75
2023/03/02 03:12:46;;;;;;;16.30;11.30;;;1.10;99.90;;;;;;10328432;28;20221;-74
2023/03/02 03:17:54;;;;;;;17.43;10.70;;;1.10;99.90;;;;;;10327786;28;20257;-72
2023/03/02 03:22:54;;;;;;;18.30;11.03;;;1.10;99.90;;;;;;10328858;28;20317;-73
2023/03/02 03:27:55;;;;;;;17.67;11.63;;;1.10;99.90;;;;;;10338238;28;20915;-73
2023/03/02 03:32:55;;;;;;;16.83;10.90;;;1.00;99.90;;;;;;10329200;28;20218;-74
2023/03/02 03:37:56;;;;;;;17.17;10.90;;;1.00;99.90;;;;;;10331242;28;20232;-77
2023/03/02 03:42:57;;;;;;;20.03;11.40;;;1.00;99.90;;;;;;10327587;28;20308;-75
2023/03/02 03:47:57;;;;;;;19.83;11.93;;;1.00;99.90;;;;;;10328315;28;20225;-75
2023/03/02 03:53:01;;;;;;;19.10;11.23;;;1.00;99.90;;;;;;10330427;28;20218;-76
2023/03/02 03:58:02;;;;;;;18.13;11.10;;;0.90;99.90;;;;;;10328803;28;20254;-75
2023/03/02 04:03:02;;;;;;;16.40;10.97;;;0.90;99.90;;;;;;10336619;28;20245;-76
2023/03/02 04:08:07;;;;;;;18.57;11.03;;;0.80;99.90;;;;;;10336131;28;20873;-74
2023/03/02 04:13:07;;;;;;;15.43;10.30;;;0.80;99.90;;;;;;10336727;28;20237;-75
2023/03/02 04:18:08;;;;;;;19.67;11.43;;;0.70;99.90;;;;;;10339064;28;20296;-73
2023/03/02 04:23:08;;;;;;;18.87;10.50;;;0.70;99.90;;;;;;10338031;28;20272;-74
2023/03/02 04:28:09;;;;;;;16.17;10.93;;;0.70;99.90;;;;;;10334923;28;20229;-76
2023/03/02 04:33:09;;;;;;;17.13;10.60;;;0.70;99.90;;;;;;10338442;28;20235;-74
2023/03/02 04:38:10;;;;;;;18.23;10.90;;;0.70;99.90;;;;;;10334975;28;20210;-75
2023/03/02 04:43:11;;;;;;;20.53;11.47;;;0.70;99.90;;;;;;10333951;28;20638;-73
2023/03/02 04:48:11;;;;;;;17.13;11.60;;;0.70;99.90;;;;;;10333762;28;20825;-74
2023/03/02 04:53:12;;;;;;;19.07;11.50;;;0.70;99.90;;;;;;10335966;28;20214;-74
2023/03/02 04:58:13;;;;;;;17.97;11.37;;;0.70;99.90;;;;;;10340716;28;20730;-74
2023/03/02 05:03:14;;;;;;;17.90;11.73;;;0.70;99.90;;;;;;10326769;28;20267;-75
2023/03/02 05:08:14;;;;;;;17.97;11.93;;;0.70;99.90;;;;;;10358251;28;20236;-77
2023/03/02 05:13:15;;;;;;;16.73;11.10;;;0.80;99.90;;;;;;10376512;28;20743;-74
2023/03/02 05:18:15;;;;;;;18.50;11.57;;;0.80;99.90;;;;;;10378768;28;20236;-74
2023/03/02 05:23:23;;;;;;;17.13;10.87;;;0.90;99.90;;;;;;10374854;28;20312;-75
2023/03/02 05:28:25;;;;;;;16.33;10.87;;;1.00;99.90;;;;;;10379253;28;20260;-76
2023/03/02 05:33:26;;;;;;;21.97;11.77;;;1.00;99.90;;;;;;10390026;28;20226;-77
2023/03/02 05:38:26;;;;;;;18.73;11.20;;;1.00;99.90;;;;;;10383836;28;20224;-77
2023/03/02 05:43:27;;;;;;;18.10;11.40;;;1.00;99.90;;;;;;10373962;28;20863;-75
2023/03/02 05:48:31;;;;;;;18.60;10.90;;;1.00;99.90;;;;;;10371215;28;20897;-70
2023/03/02 05:53:31;;;;;;;17.47;11.13;;;1.00;99.90;;;;;;10373077;28;20271;-69
2023/03/02 05:58:32;;;;;;;19.70;10.67;;;1.00;99.90;;;;;;10371227;28;20256;-69
2023/03/02 06:03:33;;;;;;;19.40;10.87;;;0.90;99.90;;;;;;10374006;28;20222;-69
2023/03/02 06:08:39;;;;;;;15.90;10.37;;;0.90;99.90;;;;;;10378839;28;20248;-77
2023/03/02 06:13:40;;;;;;;19.83;11.83;;;0.90;99.90;;;;;;10387395;28;20214;-77
2023/03/02 06:18:41;;;;;;;16.03;11.20;;;0.80;99.90;;;;;;10378116;28;20232;-77
2023/03/02 06:23:41;;;;;;;18.67;11.47;;;0.80;99.90;;;;;;10368931;28;20267;-74
2023/03/02 06:28:42;;;;;;;16.43;10.47;;;0.90;99.90;;;;;;10372026;28;20229;-75
2023/03/02 06:33:42;;;;;;;21.20;12.70;;;1.00;99.90;;;;;;10377421;28;20220;-75
2023/03/02 06:38:43;;;;;;;19.40;13.27;;;1.10;99.90;;;;;;10371920;28;20304;-77
2023/03/02 06:43:44;;;;;;;19.77;11.20;;;1.20;99.90;;;;;;10369676;28;20225;-77
2023/03/02 06:48:45;;;;;;;17.07;10.80;;;1.40;99.90;;;;;;10387476;28;20229;-77
2023/03/02 06:53:45;;;;;;;17.83;10.63;;;1.50;99.90;;;;;;10371486;28;20770;-72
2023/03/02 06:58:49;;;;;;;16.83;11.07;;;1.60;99.90;;;;;;10372227;28;20225;-73
2023/03/02 07:03:49;;;;;;;20.27;10.80;;;1.80;99.90;;;;;;10369248;28;20652;-78
2023/03/02 07:08:50;;;;;;;21.00;10.67;;;2.00;99.90;;;;;;10368383;28;20260;-80
2023/03/02 07:13:51;;;;;;;17.97;10.90;;;2.30;99.90;;;;;;10340962;28;20219;-79
2023/03/02 07:19:05;;;;;;;16.03;9.93;;;2.70;99.90;;;;;;10505666;27;20612;-79
2023/03/02 07:24:06;;;;;;;17.67;10.53;;;2.80;99.90;;;;;;10487628;28;20226;-80
2023/03/02 07:29:07;;;;;;;14.73;9.50;;;3.20;99.90;;;;;;10486602;28;20219;-78
2023/03/02 07:34:07;;;;;;;15.67;9.53;;;4.00;99.90;;;;;;10485370;28;20233;-79
2023/03/02 07:39:08;;;;;;;14.03;9.60;;;5.70;99.90;;;;;;10517912;28;20744;-78
2023/03/02 07:44:08;;;;;;;12.47;9.10;;;6.60;99.90;;;;;;10484469;28;20234;-75
2023/03/02 07:49:09;;;;;;;13.27;9.80;;;7.50;97.70;;;;;;10484263;28;20226;-78
2023/03/02 07:54:10;;;;;;;12.93;9.70;;;8.40;93.20;;;;;;10488000;28;20212;-76
2023/03/02 07:59:12;;;;;;;14.43;9.23;;;9.30;89.00;;;;;;10482117;28;20230;-76
2023/03/02 08:04:12;;;;;;;14.20;9.63;;;9.70;84.70;;;;;;10483942;28;20249;-75
2023/03/02 08:09:16;;;;;;;13.13;9.50;;;10.20;79.60;;;;;;10483454;28;20215;-75
2023/03/02 08:14:17;;;;;;;16.97;9.70;;;10.80;75.60;;;;;;10481628;28;20222;-77
2023/03/02 08:19:18;;;;;;;15.30;9.83;;;11.30;72.00;;;;;;10483119;28;20211;-77
2023/03/02 08:24:19;;;;;;;14.30;9.60;;;11.70;68.50;;;;;;10514792;28;20301;-78
2023/03/02 08:29:20;;;;;;;12.70;9.90;;;12.20;65.30;;;;;;10464577;28;20602;-77
2023/03/02 08:34:21;;;;;;;14.60;9.93;;;12.50;63.20;;;;;;10456085;28;20293;-75
2023/03/02 08:39:22;;;;;;;12.50;10.17;;;12.70;61.60;;;;;;10490300;28;20212;-76
2023/03/02 08:44:26;;;;;;;18.47;11.40;;;13.30;59.80;;;;;;10457271;28;20275;-77
2023/03/02 08:49:26;;;;;;;14.63;10.50;;;13.80;58.10;;;;;;10455928;28;20246;-77
2023/03/02 08:54:27;;;;;;;12.73;10.60;;;15.20;54.70;;;;;;10456779;28;20257;-76
2023/03/02 08:59:28;;;;;;;14.23;10.80;;;14.90;54.10;;;;;;10454406;28;20742;-75
2023/03/02 09:04:29;;;;;;;18.13;10.80;;;14.90;54.10;;;;;;10453185;28;20222;-77
2023/03/02 09:09:29;;;;;;;16.20;11.37;;;15.10;52.80;;;;;;10451978;28;20230;-77
2023/03/02 09:14:30;;;;;;;16.30;11.20;;;15.30;51.90;;;;;;10452314;28;20291;-76
2023/03/02 09:19:30;;;;;;;15.00;11.17;;;14.80;53.00;;;;;;10457641;28;20227;-77
2023/03/02 09:24:31;;;;;;;15.93;10.70;;;14.60;53.20;;;;;;10457020;28;20360;-79
2023/03/02 09:29:32;;;;;;;13.77;11.03;;;15.10;53.00;;;;;;10455810;28;20235;-76
2023/03/02 09:34:33;;;;;;;16.97;12.03;;;15.80;50.90;;;;;;10455700;28;20258;-72
2023/03/02 09:39:35;;;;;;;14.80;11.07;;;16.10;49.90;;;;;;10452712;28;20250;-79
2023/03/02 09:44:59;;;;;;;16.17;11.20;;;16.20;49.60;;;;;;10451499;28;20573;-77
2023/03/02 09:50:25;;;;;;;17.93;11.27;;;16.00;49.70;;;;;;10451158;28;20227;-78
2023/03/02 09:55:30;;;;;;;12.97;10.63;;;16.70;48.70;;;;;;10492344;28;20814;-78
2023/03/02 10:00:35;;;;;;;12.80;10.60;;;16.90;48.60;;;;;;10491868;28;20219;-77
2023/03/02 10:05:45;;;;;;;13.93;10.80;;;17.00;47.60;;;;;;10492895;28;20222;-76
2023/03/02 10:11:04;;;;;;;17.10;11.60;;;17.30;47.30;;;;;;10493654;28;20242;-76
2023/03/02 10:16:38;;;;;;;17.97;11.30;;;17.20;46.80;;;;;;10494256;28;20226;-75
2023/03/02 10:21:49;;;;;;;15.77;10.80;;;17.90;45.80;;;;;;10494828;28;20230;-77
2023/03/02 10:27:00;;;;;;;15.17;10.67;;;17.80;45.30;;;;;;10492794;28;20233;-75
2023/03/02 10:32:13;;;;;;;17.67;11.47;;;17.60;45.30;;;;;;10495302;28;20223;-77
2023/03/02 10:37:20;;;;;;;14.73;10.50;;;18.70;44.90;;;;;;10501397;28;20223;-76
2023/03/02 10:42:35;;;;;;;15.10;11.10;;;18.40;44.30;;;;;;10491551;28;20227;-76
2023/03/02 10:47:36;;;;;;;15.43;10.90;;;18.30;45.10;;;;;;10488489;28;20218;-77
2023/03/02 10:52:48;;;;;;;14.43;10.97;;;20.00;43.60;;;;;;10493711;28;20642;-78
2023/03/02 10:58:01;;;;;;;12.80;10.20;;;20.30;42.10;;;;;;10493261;28;20235;-78
2023/03/02 11:03:18;;;;;;;13.57;10.57;;;20.40;41.40;;;;;;10492990;28;20243;-76
2023/03/02 11:08:42;;;;;;;12.90;10.80;;;20.70;40.70;;;;;;10493037;28;20297;-79
2023/03/02 11:13:43;;;;;;;14.50;10.27;;;20.10;40.90;;;;;;10491987;28;20223;-74
2023/03/02 11:19:07;;;;;;;12.07;10.03;;;20.60;40.90;;;;;;10488395;28;20230;-77
2023/03/02 11:24:35;;;;;;;10.93;9.20;;;20.90;40.00;;;;;;10489496;28;20220;-76
2023/03/02 11:29:55;;;;;;;12.10;10.03;;;20.90;40.10;;;;;;10474733;28;20860;-76
2023/03/02 11:35:09;;;;;;;13.27;10.30;;;21.40;39.20;;;;;;10522539;28;20264;-76
2023/03/02 11:40:41;;;;;;;12.53;10.13;;;18.90;41.80;;;;;;10489161;28;20225;-78
2023/03/02 11:45:47;;;;;;;13.00;10.23;;;15.80;48.50;;;;;;10483558;28;20205;-78
2023/03/02 11:50:58;;;;;;;14.07;10.60;;;14.40;52.20;;;;;;10490047;28;20299;-81
2023/03/02 11:55:59;;;;;;;16.00;9.40;;;13.70;53.70;;;;;;10489829;28;20294;-74
2023/03/02 12:01:01;;;;;;;14.30;10.33;;;13.20;55.70;;;;;;10524338;28;20781;-76
2023/03/02 12:06:17;;;;;;;20.83;10.40;;;12.80;56.90;;;;;;10499029;28;20222;-75
2023/03/02 12:11:17;;;;;;;12.90;10.10;;;12.50;57.80;;;;;;10499074;28;20280;-74
2023/03/02 12:16:36;;;;;;;16.30;10.00;;;12.40;58.50;;;;;;10496969;28;20219;-75
2023/03/02 12:21:57;;;;;;;13.77;9.60;;;12.30;58.80;;;;;;10524245;28;20219;-75
2023/03/02 12:27:15;;;;;;;13.37;9.47;;;12.20;59.30;;;;;;10498447;28;20227;-75
2023/03/02 12:32:25;;;;;;;14.87;9.40;;;12.20;60.00;;;;;;10496532;28;20214;-77
2023/03/02 12:37:48;;;;;;;15.53;9.87;;;12.20;59.80;;;;;;10495882;28;20227;-77
2023/03/02 12:43:06;;;;;;;12.80;9.23;;;12.20;60.20;;;;;;10493205;28;20219;-79
2023/03/02 12:48:28;;;;;;;15.27;8.90;;;12.40;60.40;;;;;;10499777;28;20300;-78
2023/03/02 12:53:29;;;;;;;15.10;8.77;;;12.40;61.90;;;;;;10499905;28;20284;-77
2023/03/02 12:58:31;;;;;;;15.23;8.27;;;12.30;61.70;;;;;;10484879;28;20737;-77
2023/03/02 13:03:31;;;;;;;14.70;8.97;;;12.00;62.40;;;;;;10497292;28;20727;-76
2023/03/02 13:08:33;;;;;;;11.70;8.13;;;11.90;63.20;;;;;;10495467;28;20215;-75
2023/03/02 13:13:42;;;;;;;13.17;8.30;;;11.90;63.70;;;;;;10494398;28;20227;-75
2023/03/02 13:18:43;;;;;;;12.30;8.27;;;11.90;63.70;;;;;;10494459;28;20243;-75
2023/03/02 13:23:47;;;;;;;13.17;8.70;;;12.00;64.50;;;;;;10486594;28;20364;-75
2023/03/02 13:28:58;;;;;;;14.73;8.60;;;11.90;63.90;;;;;;10493000;28;20224;-74
2023/03/02 13:33:59;;;;;;;14.70;9.30;;;12.10;64.00;;;;;;10493393;28;20690;-76
2023/03/02 13:39:01;;;;;;;15.13;8.90;;;12.20;62.80;;;;;;10493434;28;20227;-76
2023/03/02 13:44:20;;;;;;;12.23;8.90;;;12.20;63.10;;;;;;10493279;28;20215;-75
2023/03/02 13:49:31;;;;;;;15.67;8.73;;;12.20;62.80;;;;;;10492988;28;20346;-74
2023/03/02 13:54:34;;;;;;;11.30;8.60;;;12.20;64.40;;;;;;10485101;28;20324;-75
2023/03/02 13:59:35;;;;;;;16.13;9.60;;;12.20;63.20;;;;;;10492708;28;20215;-74
2023/03/02 14:04:36;;;;;;;16.73;9.77;;;12.20;62.70;;;;;;10492087;28;20211;-77
2023/03/02 14:09:36;;;;;;;17.13;8.60;;;12.20;62.40;;;;;;10490172;28;20219;-71
2023/03/02 14:14:39;;;;;;;13.37;9.03;;;12.20;62.90;;;;;;10490967;28;22857;-76
2023/03/02 14:19:39;;;;;;;12.37;8.93;;;12.30;62.60;;;;;;10523906;28;20216;-78
2023/03/02 14:24:40;;;;;;;14.60;8.80;;;12.30;62.50;;;;;;10491323;28;20614;-79
2023/03/02 14:29:45;;;;;;;12.13;8.40;;;12.30;62.70;;;;;;10491785;28;20937;-79
2023/03/02 14:34:45;;;;;;;13.70;8.37;;;12.40;62.00;;;;;;10490429;28;20234;-77
2023/03/02 14:39:50;;;;;;;12.90;8.20;;;12.40;61.20;;;;;;10490793;28;20211;-77
2023/03/02 14:44:51;;;;;;;17.03;9.03;;;12.40;61.40;;;;;;10490714;28;20699;-77
2023/03/02 14:49:52;;;;;;;11.97;8.40;;;12.30;61.70;;;;;;10491668;28;20215;-77
2023/03/02 14:54:56;;;;;;;13.07;8.50;;;12.40;61.40;;;;;;10492835;28;20215;-79
2023/03/02 14:59:58;;;;;;;12.70;8.47;;;12.40;61.80;;;;;;10502429;28;20618;-79
2023/03/02 15:04:59;;;;;;;14.60;8.67;;;12.20;61.70;;;;;;10501075;28;20223;-79
2023/03/02 15:09:59;;;;;;;13.90;8.23;;;12.30;62.30;;;;;;10496770;28;20219;-81
2023/03/02 15:15:00;;;;;;;15.43;8.10;;;12.30;62.50;;;;;;10494127;28;20230;-80
2023/03/02 15:20:01;;;;;;;17.10;8.83;;;12.40;62.30;;;;;;10493268;28;20306;-79
2023/03/02 15:25:01;;;;;;;14.77;8.67;;;12.30;63.10;;;;;;10493557;28;20230;-80
2023/03/02 15:30:03;;;;;;;14.67;7.50;;;12.30;63.40;;;;;;10486373;28;20215;-76
2023/03/02 15:35:04;;;;;;;15.50;7.73;;;12.10;65.00;;;;;;10491199;28;20227;-76
2023/03/02 15:40:06;;;;;;;12.20;7.23;;;12.00;66.00;;;;;;10494558;28;20231;-76
2023/03/02 15:45:07;;;;;;;14.73;7.37;;;11.90;66.50;;;;;;10497105;28;20192;-78
2023/03/02 15:50:08;;;;;;;14.27;7.97;;;11.80;67.10;;;;;;10497478;28;20187;-80
2023/03/02 15:55:09;;;;;;;15.23;8.13;;;11.70;67.20;;;;;;10497045;28;20720;-76
2023/03/02 16:00:12;;;;;;;17.20;8.60;;;11.60;66.80;;;;;;10496013;28;20194;-76
2023/03/02 16:05:13;;;;;;;17.33;9.03;;;11.50;67.10;;;;;;10495761;28;20194;-78
2023/03/02 16:10:15;;;;;;;19.87;9.30;;;11.40;67.20;;;;;;10496182;28;20282;-77
2023/03/02 16:15:15;;;;;;;12.73;9.30;;;11.40;67.30;;;;;;10496259;28;20219;-77
2023/03/02 16:20:16;;;;;;;15.70;10.27;;;11.30;67.50;;;;;;10496932;28;20262;-77
2023/03/02 16:25:17;;;;;;;15.60;10.30;;;11.20;66.50;;;;;;10529138;28;20191;-78
2023/03/02 16:30:17;;;;;;;14.70;10.23;;;11.00;66.40;;;;;;10491154;28;20191;-75
2023/03/02 16:35:21;;;;;;;16.47;10.23;;;10.90;66.60;;;;;;10494840;28;20215;-76
2023/03/02 16:40:22;;;;;;;14.50;10.23;;;10.80;67.10;;;;;;10494922;28;20187;-75
2023/03/02 16:45:23;;;;;;;14.43;9.50;;;10.60;67.60;;;;;;10495387;28;20187;-76
2023/03/02 16:50:23;;;;;;;16.40;10.10;;;10.50;68.20;;;;;;10493303;28;20677;-76
2023/03/02 16:55:25;;;;;;;14.87;10.00;;;10.40;67.90;;;;;;10495398;28;20718;-76
2023/03/02 17:00:26;;;;;;;15.17;9.23;;;10.30;68.20;;;;;;10494062;28;20716;-74
2023/03/02 17:05:26;;;;;;;13.77;8.87;;;10.10;68.00;;;;;;10527697;28;20223;-75
2023/03/02 17:10:27;;;;;;;12.40;8.77;;;9.90;68.10;;;;;;10494282;28;20710;-75
2023/03/02 17:15:28;;;;;;;12.47;8.53;;;9.80;68.10;;;;;;10522710;28;20238;-74
2023/03/02 17:20:28;;;;;;;13.77;9.10;;;9.70;68.50;;;;;;10492912;28;20214;-74
2023/03/02 17:25:29;;;;;;;13.23;9.17;;;9.60;68.80;;;;;;10497842;28;20705;-74
2023/03/02 17:30:30;;;;;;;16.20;9.10;;;9.50;69.00;;;;;;10499359;28;20237;-74
2023/03/02 17:35:31;;;;;;;13.53;9.07;;;9.40;69.60;;;;;;10492016;28;20284;-75
2023/03/02 17:40:32;;;;;;;15.30;9.50;;;9.20;69.80;;;;;;10482268;28;20223;-73
2023/03/02 17:45:33;;;;;;;20.63;11.67;;;9.10;70.30;;;;;;10492278;28;20234;-78
2023/03/02 17:50:36;;;;;;;13.43;9.07;;;9.00;71.40;;;;;;10525676;28;20230;-72
2023/03/02 17:55:37;;;;;;;14.27;8.90;;;9.00;72.00;;;;;;10491934;28;20236;-71
2023/03/02 18:00:39;;;;;;;11.97;8.97;;;8.80;71.60;;;;;;10491163;28;20412;-74
2023/03/02 18:05:41;;;;;;;12.33;8.73;;;8.70;71.70;;;;;;10492070;28;20230;-74
2023/03/02 18:10:41;;;;;;;11.27;7.93;;;8.60;72.00;;;;;;10490178;28;20313;-74
2023/03/02 18:15:42;;;;;;;14.40;8.23;;;8.50;71.80;;;;;;10490594;28;20313;-73
2023/03/02 18:20:43;;;;;;;11.83;8.20;;;8.50;72.00;;;;;;10490770;28;20222;-73
2023/03/02 18:25:44;;;;;;;12.63;8.57;;;8.40;72.40;;;;;;10495383;28;20229;-72
2023/03/02 18:30:44;;;;;;;12.03;7.60;;;8.30;72.60;;;;;;10488750;28;20345;-72
2023/03/02 18:35:45;;;;;;;14.23;8.57;;;8.30;73.00;;;;;;10523091;28;20226;-73
2023/03/02 18:40:46;;;;;;;13.37;8.73;;;8.20;73.20;;;;;;10487350;28;20309;-74
2023/03/02 18:45:47;;;;;;;13.90;9.10;;;8.10;73.10;;;;;;10490820;28;20296;-74
2023/03/02 18:50:47;;;;;;;13.40;8.73;;;8.00;73.60;;;;;;10488595;28;20307;-74
2023/03/02 18:55:48;;;;;;;11.10;7.60;;;7.90;74.40;;;;;;10490147;28;20666;-74
2023/03/02 19:00:52;;;;;;;11.27;7.50;;;7.90;73.30;;;;;;10490282;28;20597;-74
2023/03/02 19:05:53;;;;;;;12.73;7.77;;;7.90;72.80;;;;;;10490181;28;20226;-75
2023/03/02 19:10:54;;;;;;;11.97;7.53;;;7.80;72.80;;;;;;10489761;28;20227;-74
2023/03/02 19:15:55;;;;;;;13.17;7.27;;;7.70;72.50;;;;;;10490555;28;20770;-74
2023/03/02 19:20:56;;;;;;;11.17;7.50;;;7.60;71.90;;;;;;10489445;28;20234;-76
2023/03/02 19:25:58;;;;;;;10.73;7.20;;;7.50;71.80;;;;;;10493920;28;20221;-75
2023/03/02 19:31:02;;;;;;;11.97;7.73;;;7.50;71.90;;;;;;10489026;28;20234;-74
2023/03/02 19:36:04;;;;;;;9.57;7.43;;;7.30;72.00;;;;;;10489684;28;20223;-75
2023/03/02 19:41:05;;;;;;;11.33;7.60;;;7.30;72.10;;;;;;10488307;28;20219;-75
2023/03/02 19:46:05;;;;;;;10.50;7.57;;;7.20;71.90;;;;;;10487855;28;20591;-75
2023/03/02 19:51:07;;;;;;;17.37;7.70;;;7.20;72.00;;;;;;10489873;28;20247;-75
2023/03/02 19:56:11;;;;;;;12.90;7.77;;;7.10;72.20;;;;;;10489376;28;20314;-76
2023/03/02 20:01:20;;;;;;;13.93;7.20;;;7.00;72.40;;;;;;10487868;28;20219;-76
2023/03/02 20:06:25;;;;;;;13.70;6.97;;;7.00;71.30;;;;;;10521636;28;20230;-77
2023/03/02 20:11:27;;;;;;;19.03;6.40;;;6.90;70.50;;;;;;10485519;28;20251;-73
2023/03/02 20:16:30;;;;;;;9.10;6.17;;;6.90;69.10;;;;;;10485516;28;20322;-76
2023/03/02 20:21:32;;;;;;;11.03;6.97;;;6.90;68.20;;;;;;10478312;28;20227;-74
2023/03/02 20:26:33;;;;;;;11.40;6.43;;;6.80;67.70;;;;;;10495126;28;20541;-75
2023/03/02 20:31:59;;;;;;;8.33;6.53;;;6.70;67.70;;;;;;10496267;28;20222;-75
2023/03/02 20:37:01;;;;;;;10.53;6.37;;;6.60;67.20;;;;;;10478063;28;20230;-74
2023/03/02 20:42:03;;;;;;;9.10;5.90;;;6.50;67.20;;;;;;10494712;28;20223;-76
2023/03/02 20:47:10;;;;;;;9.47;5.63;;;6.50;67.00;;;;;;10527990;28;20211;-79
2023/03/02 20:52:10;;;;;;;10.87;6.07;;;6.40;66.80;;;;;;10495625;28;20418;-75
2023/03/02 20:57:18;;;;;;;13.73;6.80;;;6.30;66.80;;;;;;10494327;28;20227;-75
2023/03/02 21:02:19;;;;;;;13.33;7.43;;;6.30;66.40;;;;;;10528425;28;20311;-77
2023/03/02 21:07:20;;;;;;;8.53;5.87;;;6.20;66.20;;;;;;10495792;28;20766;-77
2023/03/02 21:12:21;;;;;;;8.20;5.43;;;6.20;65.90;;;;;;10495115;28;20221;-70
2023/03/02 21:17:23;;;;;;;7.57;5.43;;;6.10;65.50;;;;;;10493011;28;20240;-70
2023/03/02 21:22:23;;;;;;;9.93;5.80;;;6.10;65.50;;;;;;10493161;28;20253;-73
2023/03/02 21:27:24;;;;;;;8.63;5.67;;;6.00;65.70;;;;;;10520026;28;20285;-75
2023/03/02 21:32:25;;;;;;;13.23;6.37;;;6.00;65.90;;;;;;10492526;28;20226;-75
2023/03/02 21:37:25;;;;;;;9.40;6.30;;;6.00;66.00;;;;;;10494546;28;20237;-74
2023/03/02 21:42:26;;;;;;;12.43;6.37;;;6.10;66.50;;;;;;10493509;28;20223;-73
2023/03/02 21:47:27;;;;;;;12.20;6.37;;;6.00;66.80;;;;;;10490875;28;20223;-73
2023/03/02 21:52:28;;;;;;;16.37;5.90;;;5.90;67.50;;;;;;10490833;28;20283;-75
2023/03/02 21:57:28;;;;;;;14.63;7.40;;;5.90;68.90;;;;;;10489788;28;20698;-77
2023/03/02 22:02:30;;;;;;;10.93;6.60;;;5.80;68.60;;;;;;10491704;28;20230;-75
2023/03/02 22:07:30;;;;;;;8.80;5.97;;;5.70;69.20;;;;;;10483859;28;20690;-76
2023/03/02 22:12:31;;;;;;;10.20;6.23;;;5.70;69.80;;;;;;10490892;28;20223;-77
2023/03/02 22:17:32;;;;;;;8.70;6.60;;;5.60;70.50;;;;;;10491162;28;20249;-75
2023/03/02 22:22:33;;;;;;;11.10;6.03;;;5.50;70.90;;;;;;10523756;28;20690;-76
2023/03/02 22:27:34;;;;;;;10.67;6.20;;;5.50;71.70;;;;;;10490890;28;20222;-78
2023/03/02 22:32:37;;;;;;;9.30;5.80;;;5.40;72.60;;;;;;10490411;28;20219;-78
2023/03/02 22:37:37;;;;;;;11.77;5.90;;;5.30;73.40;;;;;;10489816;28;20317;-81
2023/03/02 22:42:38;;;;;;;11.97;6.17;;;5.20;74.30;;;;;;10491463;28;20302;-75
2023/03/02 22:47:39;;;;;;;11.23;7.40;;;5.20;74.80;;;;;;10490546;28;20222;-73
2023/03/02 22:52:42;;;;;;;11.77;6.83;;;5.20;75.60;;;;;;10491142;28;20254;-74
2023/03/02 22:57:43;;;;;;;11.47;6.87;;;5.10;76.50;;;;;;10490600;28;20231;-73
2023/03/02 23:02:44;;;;;;;11.90;7.63;;;5.10;77.40;;;;;;10490010;28;20227;-74
2023/03/02 23:07:45;;;;;;;14.27;7.13;;;5.10;78.10;;;;;;10490759;28;20223;-73
2023/03/02 23:12:45;;;;;;;10.33;6.73;;;5.10;78.80;;;;;;10490658;28;20284;-73
2023/03/02 23:17:47;;;;;;;12.40;6.90;;;5.10;79.10;;;;;;10489802;28;20292;-73
2023/03/02 23:22:48;;;;;;;10.53;7.00;;;5.10;79.40;;;;;;10488351;28;20214;-74
2023/03/02 23:27:49;;;;;;;10.63;7.40;;;5.00;80.00;;;;;;10490100;28;20243;-74
2023/03/02 23:32:50;;;;;;;14.70;8.27;;;4.90;80.80;;;;;;10489581;28;20234;-75
2023/03/02 23:37:50;;;;;;;14.87;8.70;;;4.90;81.70;;;;;;10490591;28;20234;-74
2023/03/02 23:42:51;;;;;;;15.67;8.47;;;4.90;82.50;;;;;;10488464;28;20222;-75
2023/03/02 23:47:51;;;;;;;11.33;7.23;;;4.80;83.00;;;;;;10488396;28;20318;-74
2023/03/02 23:52:52;;;;;;;9.07;6.80;;;4.80;83.50;;;;;;10489240;28;20246;-75
2023/03/02 23:57:52;;;;;;;11.17;7.23;;;4.70;84.60;;;;;;10491045;28;20253;-72
